Latest Weather Observations for Parkes Airport

IDN60801

Issued at 4:05 pm EDT Friday 31 October 2014 (issued every 30 minutes, with the page automatically refreshed every 10 minutes)

About weather observations | Map of weather stations | Latest weather observations for NSW | Other Formats
Station Details ID: 065068 Name: PARKES AIRPORT AWS Lat: -33.13 Lon: 148.24 Height: 323.3 m
Data from the previous 72 hours. | See also: Recent months at Parkes Airport
Date/Time
EDT
Temp
°C
App
Temp
°C
Dew
Point
Rel
Hum
%
Delta-T
°C
Wind Press
QNH
hPa
Press
MSL
hPa
Rain
since 9 am
mm
Dir
 
Spd
km/h
Gust
km/h
Spd
kts
Gust
kts
31/04:00pm 34.6 27.5 -1.4 10 17.6 NNW 26 43 14 23 1007.4 1006.9 0.0
31/03:30pm 34.1 26.0 -3.2 9 17.7 NNW 30 46 16 25 1008.0 1007.4 0.0
31/03:16pm 34.0 26.3 -3.3 9 17.6 NNW 28 46 15 25 1007.9 1007.3 0.0
31/03:00pm 34.6 27.9 -1.4 10 17.6 N 24 37 13 20 1008.3 1007.7 0.0
31/02:30pm 33.3 25.7 -2.4 10 17.0 NNW 28 43 15 23 1008.8 1008.2 0.0
31/02:00pm 35.1 28.2 -2.5 9 18.1 NNW 24 33 13 18 1009.2 1008.6 0.0
31/01:30pm 33.9 27.1 -2.0 10 17.3 NNW 24 35 13 19 1009.9 1009.4 0.0
31/01:10pm 34.6 27.1 -1.4 10 17.6 N 28 46 15 25 1010.3 1009.8 0.0
31/01:00pm 34.1 27.5 -0.5 11 17.1 N 24 44 13 24 1010.6 1010.1 0.0
31/12:30pm 33.8 25.6 -0.7 11 17.0 N 32 46 17 25 1011.4 1010.8 0.0
31/12:00pm 34.0 26.1 -1.9 10 17.3 N 30 48 16 26 1011.9 1011.3 0.0
31/11:59am 33.8 25.8 -2.0 10 17.2 N 30 48 16 26 1011.8 1011.2 0.0
31/11:30am 33.0 25.3 -2.6 10 16.9 N 28 43 15 23 1012.2 1011.6 0.0
31/11:00am 32.6 26.1 0.6 13 16.0 NNE 24 33 13 18 1012.6 1012.1 0.0
31/10:30am 31.9 25.2 -1.0 12 15.9 N 24 33 13 18 1013.0 1012.5 0.0
31/10:00am 30.7 24.2 0.2 14 14.9 N 24 33 13 18 1013.4 1012.9 0.0
31/09:30am 29.7 23.7 1.2 16 14.1 N 22 30 12 16 1013.5 1013.0 0.0
31/09:00am 28.2 22.9 1.7 18 13.1 NNE 19 24 10 13 1013.6 1013.1 0.0
31/08:30am 26.4 21.0 2.3 21 11.9 NNE 20 28 11 15 1013.6 1013.1 0.0
31/08:00am 24.6 19.5 3.3 25 10.6 NNE 19 22 10 12 1013.4 1012.9 0.0
31/07:53am 23.9 20.1 3.8 27 10.0 NNE 13 22 7 12 1013.4 1012.9 0.0
31/07:30am 18.9 17.3 4.7 39 6.9 NNE 2 7 1 4 1013.4 1012.9 0.0
31/07:00am 15.2 14.1 4.9 50 4.9 CALM 0 0 0 0 1013.1 1012.6 0.0
31/06:30am 13.1 10.5 4.3 55 4.1 NE 7 9 4 5 1012.8 1012.3 0.0
31/06:00am 10.4 7.5 4.5 67 2.7 ENE 9 9 5 5 1012.6 1012.1 0.0
31/05:30am 8.7 6.2 4.5 75 1.9 N 7 9 4 5 1012.2 1011.6 0.0
31/05:00am 8.1 5.1 4.1 76 1.8 N 9 9 5 5 1011.9 1011.3 0.0
31/04:30am 8.9 5.6 4.5 74 2.0 NE 11 13 6 7 1011.7 1011.1 0.0
31/04:00am 9.5 6.6 4.5 71 2.3 NE 9 13 5 7 1012.2 1011.6 0.0
31/03:30am 8.9 5.9 4.1 72 2.1 NE 9 11 5 6 1012.5 1011.9 0.0
31/03:00am 9.8 6.5 4.6 70 2.4 NE 11 11 6 6 1012.7 1012.2 0.0
31/02:30am 10.2 7.3 4.4 67 2.6 NE 9 11 5 6 1012.9 1012.4 0.0
31/02:00am 10.6 6.9 4.3 65 2.9 ENE 13 17 7 9 1013.1 1012.6 0.0
31/01:30am 11.1 7.8 4.6 64 3.0 NE 11 13 6 7 1013.5 1013.0 0.0
31/01:00am 11.8 8.9 4.8 62 3.3 ENE 9 13 5 7 1013.7 1013.2 0.0
31/12:30am 12.8 10.0 5.0 59 3.7 ENE 9 11 5 6 1013.9 1013.4 0.0
31/12:00am 12.7 10.2 4.7 58 3.7 NE 7 9 4 5 1013.9 1013.4 0.0
 
Date/Time
EDT
Temp
°C
App
Temp
°C
Dew
Point
Rel
Hum
%
Delta-T
°C
Wind Press
QNH
hPa
Press
MSL
hPa
Rain
since 9 am
mm
Dir
 
Spd
km/h
Gust
km/h
Spd
kts
Gust
kts
30/11:30pm 14.9 12.4 4.6 50 4.9 ENE 7 9 4 5 1013.9 1013.4 0.0
30/11:00pm 12.5 9.7 5.0 60 3.5 NNE 9 13 5 7 1013.9 1013.4 0.0
30/10:30pm 13.8 10.8 4.1 52 4.5 ENE 9 13 5 7 1013.8 1013.3 0.0
30/10:00pm 15.3 12.6 5.5 52 4.7 NE 9 11 5 6 1013.8 1013.3 0.0
30/09:30pm 15.3 11.4 3.5 45 5.5 E 13 15 7 8 1013.7 1013.2 0.0
30/09:00pm 18.0 13.8 3.9 39 6.7 E 15 15 8 8 1013.5 1013.0 0.0
30/08:30pm 18.4 16.0 4.2 39 6.9 SSE 6 9 3 5 1013.5 1013.0 0.0
30/08:00pm 20.1 18.5 2.5 31 8.3 CALM 0 0 0 0 1013.2 1012.7 0.0
30/07:30pm 24.9 22.0 2.4 23 11.0 S 7 9 4 5 1013.0 1012.5 0.0
30/07:00pm 27.7 23.6 2.0 19 12.7 SW 13 17 7 9 1012.8 1012.3 0.0
30/06:30pm 29.8 25.5 1.3 16 14.1 WSW 13 20 7 11 1012.6 1012.1 0.0
30/06:00pm 29.9 25.0 -0.5 14 14.6 WSW 15 20 8 11 1012.6 1012.1 0.0
30/05:30pm 30.2 24.1 0.7 15 14.5 SSW 22 30 12 16 1012.6 1012.1 0.0
30/05:00pm 31.2 26.5 0.6 14 15.1 W 15 22 8 12 1012.7 1012.2 0.0
30/04:30pm 30.9 25.4 0.3 14 15.0 WSW 19 32 10 17 1012.8 1012.3 0.0
30/04:00pm 31.0 27.5 1.4 15 14.8 NW 9 13 5 7 1013.0 1012.5 0.0
30/03:30pm 30.8 25.2 0.2 14 15.0 WSW 19 30 10 16 1013.3 1012.8 0.0
30/03:00pm 30.4 27.0 1.8 16 14.3 WSW 9 15 5 8 1013.7 1013.2 0.0
30/02:30pm 30.6 24.2 1.0 15 14.7 WSW 24 33 13 18 1014.3 1013.7 0.0
30/02:00pm 30.2 24.1 0.7 15 14.5 W 22 32 12 17 1014.7 1014.1 0.0
30/01:30pm 28.8 23.9 -0.4 15 13.9 WNW 15 24 8 13 1014.9 1014.3 0.0
30/01:00pm 28.7 24.4 1.3 17 13.5 WSW 13 26 7 14 1015.3 1014.8 0.0
30/12:30pm 28.4 23.7 3.3 20 12.7 SSW 17 28 9 15 1015.7 1015.2 0.0
30/12:00pm 28.1 24.8 2.3 19 12.8 W 9 20 5 11 1016.0 1015.5 0.0
30/11:30am 27.0 23.5 1.4 19 12.5 WSW 9 20 5 11 1016.5 1016.0 0.0
30/11:00am 26.2 22.6 2.8 22 11.6 W 11 20 6 11 1016.8 1016.3 0.0
30/10:30am 25.6 22.1 3.5 24 11.1 SSW 11 19 6 10 1017.0 1016.5 0.0
30/10:00am 25.1 22.0 3.7 25 10.7 W 9 15 5 8 1017.0 1016.5 0.0
30/09:30am 24.8 22.9 2.9 24 10.8 ENE 2 7 1 4 1017.0 1016.5 0.0
30/09:00am 22.8 20.9 6.6 35 8.4 NE 6 9 3 5 1017.0 1016.5 0.0
30/08:30am 19.9 17.1 7.0 43 6.6 NE 11 15 6 8 1016.7 1016.2 0.0
30/08:00am 17.2 14.9 7.5 53 5.0 NE 9 11 5 6 1016.6 1016.1 0.0
30/07:30am 12.3 11.6 7.0 70 2.6 CALM 0 6 0 3 1016.6 1016.1 0.0
30/07:00am 8.3 5.5 5.2 81 1.4 NE 9 9 5 5 1016.5 1016.0 0.0
30/06:30am 6.1 3.1 3.9 86 1.0 NNE 9 11 5 6 1016.2 1015.7 0.0
30/06:00am 5.6 2.8 3.4 86 0.9 NE 7 9 4 5 1016.0 1015.5 0.0
30/05:30am 6.3 3.8 4.0 85 1.0 NNE 6 7 3 4 1015.9 1015.4 0.0
30/05:00am 6.7 3.3 4.0 83 1.2 NE 11 11 6 6 1015.7 1015.2 0.0
30/04:30am 7.0 3.3 4.5 84 1.1 ENE 13 15 7 8 1015.6 1015.1 0.0
30/04:00am 7.1 3.8 4.4 83 1.2 ENE 11 13 6 7 1015.6 1015.1 0.0
30/03:30am 6.7 4.0 3.9 82 1.2 NNE 7 9 4 5 1015.7 1015.2 0.0
30/03:00am 7.1 4.5 4.4 83 1.2 NE 7 9 4 5 1015.7 1015.2 0.0
30/02:30am 8.0 5.1 4.6 79 1.5 ENE 9 13 5 7 1015.8 1015.3 0.0
30/02:00am 8.7 5.5 4.9 77 1.7 ENE 11 13 6 7 1016.0 1015.5 0.0
30/01:30am 8.7 5.4 4.5 75 1.9 ENE 11 13 6 7 1016.3 1015.8 0.0
30/01:00am 9.7 7.4 5.5 75 1.9 NE 7 11 4 6 1016.4 1015.9 0.0
30/12:30am 10.3 7.9 5.3 71 2.3 ENE 7 9 4 5 1016.7 1016.2 0.0
30/12:00am 10.4 8.6 5.4 71 2.3 NNE 4 9 2 5 1016.7 1016.2 0.0
 
Date/Time
EDT
Temp
°C
App
Temp
°C
Dew
Point
Rel
Hum
%
Delta-T
°C
Wind Press
QNH
hPa
Press
MSL
hPa
Rain
since 9 am
mm
Dir
 
Spd
km/h
Gust
km/h
Spd
kts
Gust
kts
29/11:30pm 12.6 9.2 5.8 63 3.2 ENE 13 17 7 9 1016.6 1016.1 0.0
29/11:00pm 12.8 10.2 5.9 63 3.3 NE 9 11 5 6 1016.6 1016.1 0.0
29/10:30pm 13.1 10.6 5.0 58 3.8 NE 7 9 4 5 1016.5 1016.0 0.0
29/10:00pm 13.4 10.7 5.6 59 3.7 ENE 9 11 5 6 1016.5 1016.0 0.0
29/09:30pm 14.1 10.6 5.5 56 4.1 ENE 13 15 7 8 1016.2 1015.7 0.0
29/09:00pm 15.3 14.3 5.8 53 4.6 CALM 0 0 0 0 1016.1 1015.6 0.0
29/08:30pm 16.6 14.0 4.3 44 5.9 S 7 9 4 5 1015.8 1015.3 0.0
29/08:00pm 18.9 15.9 4.3 38 7.1 S 9 9 5 5 1015.7 1015.2 0.0
29/07:30pm 21.7 19.1 4.3 32 8.6 SSW 7 9 4 5 1015.5 1015.0 0.0
29/07:00pm 24.2 20.8 4.0 27 10.1 SW 11 15 6 8 1015.5 1015.0 0.0
29/06:30pm 26.1 21.9 4.0 24 11.2 WSW 15 20 8 11 1015.3 1014.8 0.0
29/06:00pm 26.6 22.5 4.4 24 11.4 WSW 15 20 8 11 1015.1 1014.5 0.0
29/05:30pm 26.6 22.0 3.8 23 11.6 SW 17 22 9 12 1015.0 1014.4 0.0
29/05:00pm 26.7 21.9 4.5 24 11.4 S 19 24 10 13 1015.0 1014.4 0.0
29/04:30pm 26.7 22.6 4.5 24 11.4 WSW 15 24 8 13 1015.1 1014.5 0.0
29/04:00pm 25.9 22.0 3.2 23 11.3 SW 13 24 7 13 1015.5 1015.0 0.0
29/03:30pm 27.2 22.0 5.5 25 11.4 SSW 22 30 12 16 1015.8 1015.3 0.0
29/03:00pm 26.7 21.9 4.5 24 11.4 W 19 26 10 14 1016.2 1015.7 0.0
29/02:30pm 26.1 21.7 4.6 25 11.0 SW 17 30 9 16 1016.5 1016.0 0.0
29/02:00pm 25.7 21.4 5.3 27 10.5 SW 17 20 9 11 1016.8 1016.3 0.0
29/01:30pm 25.3 21.8 5.5 28 10.3 SW 13 24 7 13 1017.0 1016.5 0.0
29/01:00pm 25.0 19.8 5.7 29 10.0 S 22 37 12 20 1017.5 1016.9 0.0
29/12:30pm 23.9 19.0 5.3 30 9.5 WSW 20 26 11 14 1017.9 1017.3 0.0
29/12:00pm 23.5 20.1 5.9 32 9.1 SW 13 28 7 15 1018.3 1017.8 0.0
29/11:30am 22.5 17.7 5.4 33 8.7 SSW 20 30 11 16 1018.5 1018.0 0.0
29/11:00am 21.9 17.0 5.3 34 8.4 WSW 20 26 11 14 1019.1 1018.6 0.0
29/10:30am 21.5 17.1 6.6 38 7.7 SSW 19 28 10 15 1019.4 1018.9 0.0
29/10:00am 20.3 15.8 6.3 40 7.1 SSW 19 28 10 15 1019.5 1019.0 0.0
29/09:30am 19.2 15.1 6.3 43 6.5 SSW 17 24 9 13 1019.3 1018.8 0.0
29/09:00am 17.9 14.6 6.4 47 5.8 SW 13 20 7 11 1019.2 1018.7 0.0
29/08:30am 16.4 14.3 6.5 52 4.9 WSW 7 13 4 7 1019.0 1018.5 0.0
29/08:00am 14.4 13.6 6.5 59 3.9 CALM 0 6 0 3 1018.9 1018.4 0.0
29/07:30am 11.2 9.0 6.3 72 2.3 ENE 7 9 4 5 1018.7 1018.2 0.0
29/07:00am 8.4 5.8 5.9 84 1.2 ENE 9 13 5 7 1018.7 1018.2 0.0
29/06:30am 4.9 2.1 3.1 88 0.8 NE 7 7 4 4 1018.4 1017.9 0.0
29/06:00am 5.0 2.3 2.7 85 1.0 NE 6 9 3 5 1018.1 1017.6 0.0
29/05:30am 6.2 3.1 3.5 83 1.2 E 9 13 5 7 1017.7 1017.1 0.0
29/05:00am 5.8 3.1 3.6 86 0.9 NE 7 9 4 5 1017.4 1016.8 0.0
29/04:30am 6.1 3.3 2.9 80 1.4 E 7 9 4 5 1017.1 1016.6 0.0
29/04:00am 6.8 4.1 3.8 81 1.3 ENE 7 9 4 5 1016.7 1016.2 0.0
29/03:30am 6.7 4.0 3.7 81 1.3 NE 7 9 4 5 1016.7 1016.2 0.0
29/03:00am 7.0 4.0 4.0 81 1.3 ENE 9 13 5 7 1016.6 1016.1 0.0
29/02:30am 6.8 3.7 3.6 80 1.4 ENE 9 9 5 5 1016.4 1015.9 0.0
29/02:00am 6.9 3.7 3.2 77 1.6 ENE 9 9 5 5 1016.6 1016.1 0.0
29/01:30am 8.4 5.7 3.8 73 2.0 E 7 7 4 4 1016.7 1016.2 0.0
29/01:00am 8.0 6.5 3.1 71 2.1 CALM 0 0 0 0 1016.9 1016.4 0.0
29/12:30am 8.3 5.1 3.0 69 2.3 E 9 9 5 5 1016.9 1016.4 0.0
29/12:00am 10.1 7.6 3.6 64 2.9 ENE 6 7 3 4 1016.9 1016.4 0.0
 
Date/Time
EDT
Temp
°C
App
Temp
°C
Dew
Point
Rel
Hum
%
Delta-T
°C
Wind Press
QNH
hPa
Press
MSL
hPa
Rain
since 9 am
mm
Dir
 
Spd
km/h
Gust
km/h
Spd
kts
Gust
kts
28/11:30pm 10.1 7.6 3.6 64 2.9 ENE 6 9 3 5 1016.8 1016.3 0.0
28/11:00pm 10.5 8.7 3.3 61 3.2 NE 2 7 1 4 1016.7 1016.2 0.0
28/10:30pm 10.9 9.4 3.2 59 3.4 CALM 0 0 0 0 1016.6 1016.1 0.0
28/10:00pm 11.7 10.2 3.0 55 3.9 CALM 0 0 0 0 1016.5 1016.0 0.0
28/09:30pm 12.7 11.2 2.8 51 4.4 CALM 0 0 0 0 1016.3 1015.8 0.0
28/09:00pm 13.9 12.3 2.5 46 5.1 CALM 0 0 0 0 1016.2 1015.7 0.0
28/08:30pm 14.6 11.9 2.5 44 5.5 SSW 6 7 3 4 1015.8 1015.3 0.0
28/08:00pm 16.8 12.9 1.3 35 7.0 SW 11 13 6 7 1015.5 1015.0 0.0
28/07:30pm 19.3 14.3 1.3 30 8.3 SW 17 22 9 12 1015.1 1014.5 0.0
28/07:00pm 21.2 15.6 1.0 26 9.3 WSW 20 28 11 15 1014.8 1014.2 0.0
28/06:30pm 22.3 16.3 0.8 24 10.0 WSW 22 30 12 16 1014.5 1013.9 0.0
28/06:00pm 22.8 16.3 0.6 23 10.3 WSW 24 39 13 21 1014.4 1013.8 0.0
28/05:30pm 23.6 16.8 0.7 22 10.7 WSW 26 37 14 20 1014.3 1013.7 0.0
28/05:00pm 23.2 16.7 0.3 22 10.6 SW 24 35 13 19 1014.3 1013.7 0.0
28/04:30pm 23.4 17.3 0.5 22 10.7 SW 22 33 12 18 1014.4 1013.8 0.0

Other Formats:

Comma delimited format used in spreadsheet applications
http://www.bom.gov.au/fwo/IDN60801/IDN60801.95717.axf

JavaScript Object Notation format (JSON) in row-major order
http://www.bom.gov.au/fwo/IDN60801/IDN60801.95717.json